createdAt,value
2019-03-05T00:01:43.861Z,17.70
2019-03-05T00:04:32.246Z,17.60
2019-03-05T00:07:20.298Z,17.60
2019-03-05T00:10:12.078Z,17.50
2019-03-05T00:13:00.552Z,17.50
2019-03-05T00:15:49.686Z,17.40
2019-03-05T00:18:37.961Z,17.40
2019-03-05T00:21:26.032Z,17.40
2019-03-05T00:24:50.767Z,17.30
2019-03-05T00:27:41.223Z,17.30
2019-03-05T00:30:35.595Z,17.30
2019-03-05T00:33:32.674Z,17.20
2019-03-05T00:36:26.299Z,17.20
2019-03-05T00:39:32.080Z,17.20
2019-03-05T00:42:43.077Z,17.10
2019-03-05T00:45:49.741Z,17.10
2019-03-05T00:48:57.542Z,17.00
2019-03-05T00:52:00.575Z,17.00
2019-03-05T00:54:51.673Z,16.90
2019-03-05T00:57:46.111Z,16.90
2019-03-05T01:00:46.219Z,16.80
2019-03-05T01:03:55.269Z,16.80
2019-03-05T01:06:43.327Z,16.70
2019-03-05T01:09:32.152Z,16.70
2019-03-05T01:12:21.137Z,16.70
2019-03-05T01:15:10.253Z,16.60
2019-03-05T01:17:58.449Z,16.60
2019-03-05T01:20:46.991Z,16.60
2019-03-05T01:23:35.362Z,16.50
2019-03-05T01:26:23.850Z,16.50
2019-03-05T01:29:12.234Z,16.50
2019-03-05T01:32:05.119Z,16.50
2019-03-05T01:34:57.595Z,16.40
2019-03-05T01:37:45.711Z,16.40
2019-03-05T01:40:35.503Z,16.40
2019-03-05T01:43:24.025Z,16.40
2019-03-05T01:46:12.447Z,16.30
2019-03-05T01:49:00.925Z,16.30
2019-03-05T01:51:49.141Z,16.30
2019-03-05T01:54:37.342Z,16.30
2019-03-05T01:57:25.789Z,16.20
2019-03-05T02:00:14.680Z,16.20
2019-03-05T02:03:03.059Z,16.20
2019-03-05T02:05:51.481Z,16.10
2019-03-05T02:08:40.557Z,16.10
2019-03-05T02:11:28.767Z,16.10
2019-03-05T02:14:17.030Z,16.10
2019-03-05T02:17:05.341Z,16.00
2019-03-05T02:19:53.787Z,16.00
2019-03-05T02:22:43.383Z,16.00
2019-03-05T02:25:46.599Z,16.00
2019-03-05T02:28:53.158Z,15.90
2019-03-05T02:32:01.244Z,15.90
2019-03-05T02:35:10.564Z,15.90
2019-03-05T02:38:05.329Z,15.80
2019-03-05T02:40:57.583Z,15.80
2019-03-05T02:43:52.073Z,15.80
2019-03-05T02:46:49.159Z,15.80
2019-03-05T02:49:46.658Z,15.70
2019-03-05T02:52:38.135Z,15.70
2019-03-05T02:55:32.215Z,15.70
2019-03-05T02:58:19.240Z,15.70
2019-03-05T03:01:27.535Z,15.70
2019-03-05T03:04:17.314Z,15.60
2019-03-05T03:07:05.604Z,15.60
2019-03-05T03:09:57.098Z,15.60
2019-03-05T03:12:45.514Z,15.60
2019-03-05T03:15:33.875Z,15.60
2019-03-05T03:18:22.030Z,15.50
2019-03-05T03:21:11.398Z,15.50
2019-03-05T03:23:59.792Z,15.50
2019-03-05T03:26:48.468Z,15.40
2019-03-05T03:29:36.937Z,15.40
2019-03-05T03:32:25.015Z,15.40
2019-03-05T03:35:15.804Z,15.40
2019-03-05T03:38:04.490Z,15.40
2019-03-05T03:40:53.136Z,15.40
2019-03-05T03:43:41.716Z,15.30
2019-03-05T03:46:30.118Z,15.30
2019-03-05T03:49:18.004Z,15.30
2019-03-05T03:52:06.471Z,15.30
2019-03-05T03:54:54.864Z,15.30
2019-03-05T03:57:43.146Z,15.20
2019-03-05T04:00:31.701Z,15.20
2019-03-05T04:03:19.841Z,15.20
2019-03-05T04:06:08.285Z,15.20
2019-03-05T04:08:56.558Z,15.20
2019-03-05T04:11:44.934Z,15.10
2019-03-05T04:14:33.447Z,15.10
2019-03-05T04:17:22.075Z,15.10
2019-03-05T04:20:12.648Z,15.10
2019-03-05T04:23:01.512Z,15.10
2019-03-05T04:25:49.497Z,15.10
2019-03-05T04:28:38.039Z,15.10
2019-03-05T04:31:26.165Z,15.00
2019-03-05T04:34:14.735Z,15.10
2019-03-05T04:37:03.401Z,15.00
2019-03-05T04:39:51.663Z,15.00
2019-03-05T04:42:39.913Z,15.00
2019-03-05T04:45:35.138Z,15.00
2019-03-05T04:48:23.291Z,15.00
2019-03-05T04:51:13.281Z,14.90
2019-03-05T04:54:01.439Z,14.90
2019-03-05T04:56:49.675Z,14.90
2019-03-05T04:59:37.727Z,14.90
2019-03-05T05:02:26.158Z,14.90
2019-03-05T05:05:14.882Z,14.90
2019-03-05T05:08:03.485Z,14.80
2019-03-05T05:10:51.960Z,14.80
2019-03-05T05:13:39.888Z,14.80
2019-03-05T05:16:28.372Z,14.80
2019-03-05T05:19:16.517Z,14.80
2019-03-05T05:22:04.942Z,14.80
2019-03-05T05:24:53.061Z,14.70
2019-03-05T05:27:41.461Z,14.70
2019-03-05T05:30:31.757Z,14.70
2019-03-05T05:33:20.197Z,14.70
2019-03-05T05:36:08.528Z,14.70
2019-03-05T05:38:56.610Z,14.70
2019-03-05T05:41:45.121Z,14.60
2019-03-05T05:44:33.155Z,14.60
2019-03-05T05:47:21.084Z,14.60
2019-03-05T05:50:09.341Z,14.60
2019-03-05T05:52:57.676Z,14.60
2019-03-05T05:55:46.238Z,14.60
2019-03-05T05:58:34.659Z,14.60
2019-03-05T06:01:22.819Z,14.50
2019-03-05T06:04:10.903Z,14.50
2019-03-05T06:06:59.012Z,14.50
2019-03-05T06:09:47.456Z,14.50
2019-03-05T06:12:35.734Z,14.50
2019-03-05T06:15:24.024Z,14.50
2019-03-05T06:18:12.213Z,14.50
2019-03-05T06:21:00.809Z,14.40
2019-03-05T06:23:48.906Z,14.40
2019-03-05T06:26:37.089Z,14.40
2019-03-05T06:29:25.157Z,14.40
2019-03-05T06:32:13.305Z,14.40
2019-03-05T06:35:01.556Z,14.40
2019-03-05T06:37:49.925Z,14.40
2019-03-05T06:40:38.492Z,14.40
2019-03-05T06:43:27.044Z,14.30
2019-03-05T06:46:15.285Z,14.30
2019-03-05T06:49:03.424Z,14.30
2019-03-05T06:51:51.743Z,14.30
2019-03-05T06:54:40.037Z,14.30
2019-03-05T06:57:28.212Z,14.30
2019-03-05T07:00:26.507Z,14.30
2019-03-05T07:03:14.489Z,14.30
2019-03-05T07:06:39.102Z,14.20
2019-03-05T07:09:33.393Z,14.20
2019-03-05T07:12:27.911Z,14.20
2019-03-05T07:15:21.803Z,14.20
2019-03-05T07:18:18.806Z,14.20
2019-03-05T07:21:38.537Z,14.20
2019-03-05T07:24:46.405Z,14.20
2019-03-05T07:27:34.627Z,14.20
2019-03-05T07:30:22.977Z,14.20
2019-03-05T07:33:11.337Z,14.10
2019-03-05T07:36:00.084Z,14.10
2019-03-05T07:38:48.339Z,14.10
2019-03-05T07:41:36.546Z,14.10
2019-03-05T07:44:24.586Z,14.10
2019-03-05T07:47:13.118Z,14.10
2019-03-05T07:50:01.733Z,14.10
2019-03-05T07:52:50.075Z,14.10
2019-03-05T07:55:38.566Z,14.10
2019-03-05T07:58:27.073Z,14.00
2019-03-05T08:01:22.316Z,14.10
2019-03-05T08:04:05.351Z,14.00
2019-03-05T08:06:53.678Z,14.00
2019-03-05T08:09:41.750Z,14.00
2019-03-05T08:12:45.004Z,14.00
2019-03-05T08:15:44.068Z,14.00
2019-03-05T08:18:31.956Z,14.00
2019-03-05T08:21:20.258Z,14.00
2019-03-05T08:24:08.768Z,14.10
2019-03-05T08:26:57.157Z,14.10
2019-03-05T08:29:45.527Z,14.10
2019-03-05T08:32:33.803Z,14.10
2019-03-05T08:35:22.220Z,14.10
2019-03-05T08:38:11.493Z,14.20
2019-03-05T08:40:59.936Z,14.20
2019-03-05T08:43:48.006Z,14.20
2019-03-05T08:46:36.165Z,14.20
2019-03-05T08:49:24.418Z,14.20
2019-03-05T08:52:12.791Z,14.20
2019-03-05T08:55:01.389Z,14.20
2019-03-05T08:57:49.319Z,14.10
2019-03-05T09:00:37.318Z,14.10
2019-03-05T09:03:25.496Z,14.10
2019-03-05T09:06:13.903Z,14.10
2019-03-05T09:09:02.722Z,14.10
2019-03-05T09:11:51.080Z,14.00
2019-03-05T09:14:39.687Z,14.10
2019-03-05T09:17:27.771Z,14.10
2019-03-05T09:20:18.519Z,14.10
2019-03-05T09:23:06.764Z,14.10
2019-03-05T09:25:55.137Z,14.00
2019-03-05T09:28:43.615Z,14.10
2019-03-05T09:31:31.978Z,14.10
2019-03-05T09:34:20.288Z,14.10
2019-03-05T09:37:08.465Z,14.00
2019-03-05T09:39:56.839Z,14.00
2019-03-05T09:42:45.413Z,14.10
2019-03-05T09:45:33.913Z,14.20
2019-03-05T09:48:22.441Z,14.20
2019-03-05T09:51:10.578Z,14.20
2019-03-05T09:53:58.946Z,14.20
2019-03-05T09:56:47.115Z,14.20
2019-03-05T09:59:35.413Z,14.20
2019-03-05T10:02:23.844Z,14.20
2019-03-05T10:05:14.862Z,14.20
2019-03-05T10:08:03.407Z,14.20
2019-03-05T10:10:52.022Z,14.20
2019-03-05T10:13:40.342Z,14.10
2019-03-05T10:16:28.922Z,14.20
2019-03-05T10:19:17.095Z,14.10
2019-03-05T10:22:05.198Z,14.10
2019-03-05T10:24:53.356Z,14.10
2019-03-05T10:27:42.095Z,14.20
2019-03-05T10:30:36.742Z,14.20
2019-03-05T10:33:25.354Z,14.10
2019-03-05T10:36:13.690Z,14.10
2019-03-05T10:39:02.329Z,14.20
2019-03-05T10:41:50.982Z,14.20
2019-03-05T10:44:39.378Z,14.10
2019-03-05T10:47:27.845Z,14.20
2019-03-05T10:50:27.988Z,14.20
2019-03-05T10:53:16.643Z,14.20
2019-03-05T10:56:05.932Z,14.20
2019-03-05T10:58:53.967Z,14.30
2019-03-05T11:01:42.686Z,14.30
2019-03-05T11:04:32.003Z,14.30
2019-03-05T11:07:20.378Z,14.30
2019-03-05T11:10:11.846Z,14.40
2019-03-05T11:13:01.540Z,14.50
2019-03-05T11:15:53.349Z,14.50
2019-03-05T11:18:41.893Z,14.60
2019-03-05T11:21:30.187Z,14.70
2019-03-05T11:24:18.516Z,14.70
2019-03-05T11:27:06.980Z,14.70
2019-03-05T11:29:55.502Z,14.80
2019-03-05T11:32:44.233Z,14.80
2019-03-05T11:35:34.356Z,14.80
2019-03-05T11:38:22.730Z,14.80
2019-03-05T11:41:11.196Z,14.80
2019-03-05T11:43:59.589Z,14.80
2019-03-05T11:46:48.044Z,14.80
2019-03-05T11:49:36.415Z,14.80
2019-03-05T11:52:24.998Z,14.80
2019-03-05T11:55:19.487Z,14.80
2019-03-05T11:58:07.571Z,14.80
2019-03-05T12:01:00.599Z,14.80
2019-03-05T12:03:48.590Z,14.80
2019-03-05T12:06:37.298Z,14.80
2019-03-05T12:09:25.736Z,14.80
2019-03-05T12:12:14.078Z,14.80
2019-03-05T12:15:02.497Z,14.80
2019-03-05T12:17:50.912Z,14.80
2019-03-05T12:20:39.180Z,14.80
2019-03-05T12:23:27.724Z,14.70
2019-03-05T12:26:16.007Z,14.70
2019-03-05T12:29:04.221Z,14.70
2019-03-05T12:31:52.379Z,14.70
2019-03-05T12:34:40.401Z,14.70
2019-03-05T12:37:29.348Z,14.70
2019-03-05T12:40:25.982Z,14.70
2019-03-05T12:43:14.633Z,14.70
2019-03-05T12:46:02.741Z,14.70
2019-03-05T12:48:51.308Z,14.70
2019-03-05T12:51:39.559Z,14.70
2019-03-05T12:54:28.023Z,14.70
2019-03-05T12:57:16.653Z,14.60
2019-03-05T13:00:09.796Z,14.60
2019-03-05T13:02:58.415Z,14.60
2019-03-05T13:05:46.614Z,14.60
2019-03-05T13:08:35.222Z,14.60
2019-03-05T13:11:23.382Z,14.60
2019-03-05T13:14:12.388Z,14.60
2019-03-05T13:17:00.415Z,14.60
2019-03-05T13:19:48.978Z,14.60
2019-03-05T13:22:37.803Z,14.60
2019-03-05T13:25:28.727Z,14.60
2019-03-05T13:28:16.313Z,14.60
2019-03-05T13:31:05.208Z,14.60
2019-03-05T13:33:54.355Z,14.50
2019-03-05T13:36:43.055Z,14.50
2019-03-05T13:39:31.346Z,14.50
2019-03-05T13:42:19.361Z,14.50
2019-03-05T13:45:09.258Z,14.60
2019-03-05T13:48:03.792Z,14.60
2019-03-05T13:51:25.177Z,14.50
2019-03-05T13:54:19.327Z,14.50
2019-03-05T13:57:25.794Z,14.50
2019-03-05T14:00:14.281Z,14.50
2019-03-05T14:03:08.656Z,14.50
2019-03-05T14:06:17.967Z,14.50
2019-03-05T14:09:18.871Z,14.60
2019-03-05T14:12:07.411Z,14.60
2019-03-05T14:14:57.725Z,14.60
2019-03-05T14:17:46.014Z,14.70
2019-03-05T14:20:19.722Z,14.70
2019-03-05T14:23:13.335Z,14.60
2019-03-05T14:25:44.899Z,14.70
2019-03-05T14:28:15.845Z,14.60
2019-03-05T14:30:46.664Z,14.70
2019-03-05T14:33:17.429Z,14.70
2019-03-05T14:35:48.110Z,14.80
2019-03-05T14:38:19.047Z,14.90
2019-03-05T14:40:49.911Z,14.90
2019-03-05T14:43:20.700Z,15.00
2019-03-05T14:45:51.408Z,15.10
2019-03-05T14:48:22.011Z,15.20
2019-03-05T14:50:52.642Z,15.40
2019-03-05T14:53:23.388Z,15.50
2019-03-05T14:55:54.664Z,15.50
2019-03-05T14:58:25.408Z,15.70
2019-03-05T15:00:56.480Z,15.80
2019-03-05T15:03:30.348Z,15.90
2019-03-05T15:06:05.595Z,16.00
2019-03-05T15:08:36.369Z,16.20
2019-03-05T15:11:07.107Z,16.30
2019-03-05T15:13:55.278Z,16.40
2019-03-05T15:16:43.569Z,16.50
2019-03-05T15:19:34.573Z,16.70
2019-03-05T15:22:22.011Z,16.80
2019-03-05T15:25:15.424Z,16.90
2019-03-05T15:28:04.160Z,16.90
2019-03-05T15:30:52.506Z,16.90
2019-03-05T15:33:40.915Z,16.90
2019-03-05T15:36:29.520Z,17.10
2019-03-05T15:39:17.840Z,17.10
2019-03-05T15:42:06.048Z,17.20
2019-03-05T15:44:54.636Z,17.40
2019-03-05T15:47:43.317Z,17.40
2019-03-05T15:50:32.606Z,17.30
2019-03-05T15:53:22.152Z,17.40
2019-03-05T15:56:10.439Z,17.40
2019-03-05T15:58:58.438Z,17.50
2019-03-05T16:01:47.010Z,17.60
2019-03-05T16:04:35.871Z,17.70
2019-03-05T16:07:25.118Z,17.80
2019-03-05T16:10:17.166Z,17.80
2019-03-05T16:13:06.309Z,17.90
2019-03-05T16:15:54.801Z,18.00
2019-03-05T16:18:43.401Z,18.10
2019-03-05T16:21:37.172Z,18.10
2019-03-05T16:24:23.162Z,18.10
2019-03-05T16:27:12.390Z,18.20
2019-03-05T16:30:00.899Z,18.20
2019-03-05T16:32:51.175Z,18.30
2019-03-05T16:35:41.162Z,18.30
2019-03-05T16:38:51.214Z,18.30
2019-03-05T16:41:57.416Z,18.30
2019-03-05T16:44:49.785Z,18.40
2019-03-05T16:47:39.815Z,18.40
2019-03-05T16:50:32.760Z,18.40
2019-03-05T16:53:31.542Z,18.40
2019-03-05T16:56:09.072Z,18.50
2019-03-05T16:58:57.212Z,18.50
2019-03-05T17:01:46.922Z,18.50
2019-03-05T17:04:42.640Z,18.60
2019-03-05T17:07:41.111Z,18.60
2019-03-05T17:10:42.731Z,18.70
2019-03-05T17:13:31.112Z,18.80
2019-03-05T17:16:19.596Z,18.80
2019-03-05T17:19:07.992Z,18.90
2019-03-05T17:21:56.656Z,18.90
2019-03-05T17:24:44.682Z,19.00
2019-03-05T17:27:32.912Z,19.10
2019-03-05T17:30:21.161Z,19.10
2019-03-05T17:33:09.240Z,19.10
2019-03-05T17:35:57.277Z,19.20
2019-03-05T17:38:45.534Z,19.20
2019-03-05T17:41:33.871Z,19.30
2019-03-05T17:44:22.069Z,19.30
2019-03-05T17:47:10.373Z,19.30
2019-03-05T17:49:58.733Z,19.30
2019-03-05T17:52:47.071Z,19.40
2019-03-05T17:55:35.278Z,19.40
2019-03-05T17:58:23.748Z,19.50
2019-03-05T18:01:12.649Z,19.50
2019-03-05T18:04:00.918Z,19.50
2019-03-05T18:06:49.661Z,19.60
2019-03-05T18:09:41.059Z,19.60
2019-03-05T18:12:33.500Z,19.60
2019-03-05T18:15:22.064Z,19.70
2019-03-05T18:18:10.380Z,19.80
2019-03-05T18:20:58.931Z,19.80
2019-03-05T18:23:47.225Z,19.80
2019-03-05T18:26:35.121Z,19.90
2019-03-05T18:29:23.620Z,19.90
2019-03-05T18:32:12.120Z,19.90
2019-03-05T18:35:00.521Z,19.90
2019-03-05T18:37:49.067Z,19.90
2019-03-05T18:40:37.644Z,19.90
2019-03-05T18:43:26.441Z,20.00
2019-03-05T18:46:17.397Z,20.00
2019-03-05T18:49:06.277Z,20.00
2019-03-05T18:51:54.769Z,20.00
2019-03-05T18:54:43.339Z,20.00
2019-03-05T18:57:31.519Z,20.00
2019-03-05T19:00:25.745Z,20.10
2019-03-05T19:03:16.574Z,20.10
2019-03-05T19:06:04.992Z,20.10
2019-03-05T19:08:53.310Z,20.10
2019-03-05T19:11:41.560Z,20.10
2019-03-05T19:14:30.229Z,20.20
2019-03-05T19:17:20.893Z,20.20
2019-03-05T19:20:17.285Z,20.20
2019-03-05T19:23:06.128Z,20.20
2019-03-05T19:25:54.772Z,20.20
2019-03-05T19:28:43.259Z,20.20
2019-03-05T19:31:31.744Z,20.30
2019-03-05T19:34:20.251Z,20.30
2019-03-05T19:37:09.545Z,20.30
2019-03-05T19:39:58.243Z,20.30
2019-03-05T19:42:46.605Z,20.30
2019-03-05T19:45:35.162Z,20.30
2019-03-05T19:48:23.524Z,20.30
2019-03-05T19:51:12.182Z,20.30
2019-03-05T19:54:00.531Z,20.40
2019-03-05T19:56:48.953Z,20.40
2019-03-05T19:59:37.572Z,20.40
2019-03-05T20:02:26.350Z,20.40
2019-03-05T20:05:16.681Z,20.40
2019-03-05T20:08:05.459Z,20.40
2019-03-05T20:10:54.253Z,20.40
2019-03-05T20:13:42.943Z,20.40
2019-03-05T20:16:31.603Z,20.40
2019-03-05T20:19:20.384Z,20.50
2019-03-05T20:22:08.858Z,20.50
2019-03-05T20:24:57.515Z,20.50
2019-03-05T20:27:46.221Z,20.50
2019-03-05T20:30:34.962Z,20.50
2019-03-05T20:33:06.166Z,20.50
2019-03-05T20:35:54.819Z,20.50
2019-03-05T20:38:43.335Z,20.50
2019-03-05T20:41:31.793Z,20.60
2019-03-05T20:44:20.300Z,20.60
2019-03-05T20:47:08.921Z,20.60
2019-03-05T20:49:57.143Z,20.60
2019-03-05T20:52:45.893Z,20.60
2019-03-05T20:55:34.491Z,20.60
2019-03-05T20:58:23.025Z,20.60
2019-03-05T21:01:11.664Z,20.70
2019-03-05T21:04:00.444Z,20.70
2019-03-05T21:06:49.189Z,20.70
2019-03-05T21:09:38.001Z,20.70
2019-03-05T21:12:26.387Z,20.70
2019-03-05T21:15:17.319Z,20.70
2019-03-05T21:18:08.716Z,20.70
2019-03-05T21:20:57.216Z,20.60
2019-03-05T21:23:45.769Z,20.60
2019-03-05T21:26:34.324Z,20.60
2019-03-05T21:29:22.659Z,20.50
2019-03-05T21:32:11.101Z,20.50
2019-03-05T21:34:59.916Z,20.50
2019-03-05T21:37:48.516Z,20.40
2019-03-05T21:40:37.176Z,20.30
2019-03-05T21:43:25.601Z,20.30
2019-03-05T21:46:16.848Z,20.20
2019-03-05T21:49:05.439Z,20.20
2019-03-05T21:51:54.193Z,20.10
2019-03-05T21:54:42.489Z,20.10
2019-03-05T21:57:30.940Z,20.00
2019-03-05T22:00:22.487Z,20.00
2019-03-05T22:03:10.860Z,19.90
2019-03-05T22:05:59.106Z,19.90
2019-03-05T22:08:47.130Z,19.80
2019-03-05T22:11:35.268Z,19.80
2019-03-05T22:14:23.332Z,19.70
2019-03-05T22:17:12.001Z,19.60
2019-03-05T22:20:00.382Z,19.60
2019-03-05T22:22:48.844Z,19.60
2019-03-05T22:25:37.226Z,19.50
2019-03-05T22:28:25.269Z,19.50
2019-03-05T22:31:13.788Z,19.40
2019-03-05T22:33:56.162Z,19.40
2019-03-05T22:36:44.442Z,19.30
2019-03-05T22:39:32.803Z,19.20
2019-03-05T22:42:20.858Z,19.20
2019-03-05T22:45:14.815Z,19.10
2019-03-05T22:48:03.222Z,19.10
2019-03-05T22:50:51.536Z,19.00
2019-03-05T22:53:39.554Z,19.00
2019-03-05T22:56:28.124Z,18.90
2019-03-05T22:59:16.292Z,18.90
2019-03-05T23:02:05.186Z,18.80
2019-03-05T23:04:53.636Z,18.70
2019-03-05T23:07:42.066Z,18.70
2019-03-05T23:10:30.591Z,18.60
2019-03-05T23:13:19.235Z,18.50
2019-03-05T23:16:07.548Z,18.50
2019-03-05T23:18:56.055Z,18.40
2019-03-05T23:21:44.710Z,18.40
2019-03-05T23:24:32.993Z,18.30
2019-03-05T23:27:21.297Z,18.30
2019-03-05T23:30:22.580Z,18.20
2019-03-05T23:33:11.238Z,18.20
2019-03-05T23:36:00.438Z,18.20
2019-03-05T23:38:48.914Z,18.10
2019-03-05T23:41:37.248Z,18.10
2019-03-05T23:44:25.791Z,18.00
2019-03-05T23:47:14.094Z,18.00
2019-03-05T23:50:02.321Z,18.00
2019-03-05T23:52:50.705Z,18.00
2019-03-05T23:55:39.195Z,17.90
2019-03-05T23:58:27.655Z,17.90
